Terminal Aerodrome Forecast
Issued by NWS Duluth, MN

Home | Current Version | Previous Version | Text Only | Print | Product List | Glossary On
Versions: 1 2 3 4 5 6 7 8 9 10 11 12 13 14 15 16
000
FTUS43 KDLH 220530
TAFINL
TAF
KINL 220530Z 2206/2306 27005KT P6SM BKN090
     FM222000 20008KT 4SM -SN OVC018
     FM222100 20007KT 2SM -SN OVC018
     FM222300 20005KT 4SM -SN OVC018
     FM230000 VRB03KT P6SM OVC022
     FM230400 00000KT P6SM BKN035
      AMD NOT SKED=

USA.gov is the U.S. government's official web portal to all federal, state and local government web resources and services.